Time;durP1;ratioP1;P1;durP2;ratioP2;P2;SDS_P1;SDS_P2;PMS_P1;PMS_P2;Temp;Humidity;BMP_temperature;BMP_pressure;BME280_temperature;BME280_humidity;BME280_pressure;Samples;Min_cycle;Max_cycle;Signal;HPM_P1;HPM_P2
2023/09/12 00:00:17;;;;;;;5.80;5.30;;;;;;;;;;5032646;28;20430;-68
2023/09/12 00:02:43;;;;;;;9.70;5.50;;;;;;;;;;5034150;28;20473;-68
2023/09/12 00:05:09;;;;;;;6.10;5.60;;;;;;;;;;5036390;28;20191;-68
2023/09/12 00:07:35;;;;;;;9.80;4.57;;;;;;;;;;5036378;28;20415;-69
2023/09/12 00:10:01;;;;;;;11.33;4.90;;;;;;;;;;5036250;28;20471;-69
2023/09/12 00:12:27;;;;;;;12.90;5.63;;;;;;;;;;5036672;28;20892;-69
2023/09/12 00:14:53;;;;;;;5.57;5.23;;;;;;;;;;5035849;28;20971;-71
2023/09/12 00:17:20;;;;;;;9.97;4.90;;;;;;;;;;5036124;28;20499;-72
2023/09/12 00:19:46;;;;;;;8.87;5.70;;;;;;;;;;5036231;28;20435;-69
2023/09/12 00:25:15;;;;;;;9.23;5.40;;;;;;;;;;5035870;28;20394;-70
2023/09/12 00:27:41;;;;;;;6.10;4.83;;;;;;;;;;5036014;28;20474;-70
2023/09/12 00:30:07;;;;;;;6.73;6.00;;;;;;;;;;5035722;28;20458;-68
2023/09/12 00:32:33;;;;;;;6.73;4.87;;;;;;;;;;5034440;28;20415;-70
2023/09/12 00:34:59;;;;;;;4.80;4.60;;;;;;;;;;5036339;28;20487;-70
2023/09/12 00:37:25;;;;;;;6.93;6.10;;;;;;;;;;5035532;28;20310;-70
2023/09/12 00:39:51;;;;;;;6.23;5.37;;;;;;;;;;5035472;28;20192;-70
2023/09/12 00:42:17;;;;;;;5.77;5.40;;;;;;;;;;5035747;28;20416;-71
2023/09/12 00:44:43;;;;;;;9.93;5.40;;;;;;;;;;5035365;28;20420;-70
2023/09/12 00:47:10;;;;;;;6.50;6.00;;;;;;;;;;5035326;28;20517;-70
2023/09/12 00:49:37;;;;;;;6.40;5.87;;;;;;;;;;5035685;28;20474;-69
2023/09/12 00:52:03;;;;;;;6.70;5.90;;;;;;;;;;5035862;28;20510;-70
2023/09/12 00:54:29;;;;;;;6.17;5.50;;;;;;;;;;5035482;28;20470;-69
2023/09/12 00:56:55;;;;;;;5.87;5.47;;;;;;;;;;5035002;28;20493;-70
2023/09/12 00:59:21;;;;;;;6.10;5.67;;;;;;;;;;5050794;28;20474;-69
2023/09/12 01:01:47;;;;;;;5.53;5.10;;;;;;;;;;5035467;28;20518;-70
2023/09/12 01:04:14;;;;;;;7.60;6.80;;;;;;;;;;5033756;28;20423;-69
2023/09/12 01:06:40;;;;;;;5.50;5.20;;;;;;;;;;5036015;28;20435;-69
2023/09/12 01:09:07;;;;;;;7.30;6.77;;;;;;;;;;5035239;28;20470;-69
2023/09/12 01:11:33;;;;;;;8.50;7.70;;;;;;;;;;5035235;28;20470;-70
2023/09/12 01:13:59;;;;;;;8.10;4.90;;;;;;;;;;5034865;28;20419;-69
2023/09/12 01:16:25;;;;;;;4.97;4.60;;;;;;;;;;5034746;28;20958;-70
2023/09/12 01:18:51;;;;;;;6.47;5.53;;;;;;;;;;5034770;28;20473;-69
2023/09/12 01:21:26;;;;;;;5.50;5.20;;;;;;;;;;5034757;28;20501;-69
2023/09/12 01:24:15;;;;;;;7.20;5.13;;;;;;;;;;5035032;28;20886;-69
2023/09/12 01:26:49;;;;;;;7.57;4.83;;;;;;;;;;5034184;28;20419;-69
2023/09/12 01:29:16;;;;;;;10.67;5.83;;;;;;;;;;5034815;28;20419;-70
2023/09/12 01:31:43;;;;;;;15.77;5.50;;;;;;;;;;5034886;28;20510;-68
2023/09/12 01:34:10;;;;;;;5.73;5.53;;;;;;;;;;5034675;28;20501;-69
2023/09/12 01:36:36;;;;;;;9.73;7.33;;;;;;;;;;5034754;28;20535;-69
2023/09/12 01:39:02;;;;;;;7.63;5.27;;;;;;;;;;5034342;28;20415;-69
2023/09/12 01:41:29;;;;;;;6.10;5.47;;;;;;;;;;5034400;28;20477;-69
2023/09/12 01:43:56;;;;;;;7.63;5.43;;;;;;;;;;5034614;28;20415;-69
2023/09/12 01:46:23;;;;;;;15.50;6.23;;;;;;;;;;5034592;28;20485;-70
2023/09/12 01:48:51;;;;;;;5.20;4.80;;;;;;;;;;5035052;28;20434;-69
2023/09/12 01:51:18;;;;;;;7.20;6.33;;;;;;;;;;5034470;28;20423;-69
2023/09/12 01:53:46;;;;;;;6.30;5.83;;;;;;;;;;5034040;28;20419;-69
2023/09/12 01:56:13;;;;;;;6.03;5.23;;;;;;;;;;5033899;28;20527;-69
2023/09/12 01:58:39;;;;;;;8.40;5.23;;;;;;;;;;5034353;28;20423;-69
2023/09/12 02:01:05;;;;;;;5.53;5.13;;;;;;;;;;5033963;28;20416;-68
2023/09/12 02:03:31;;;;;;;7.73;5.90;;;;;;;;;;5034002;28;20412;-70
2023/09/12 02:05:57;;;;;;;5.90;5.60;;;;;;;;;;5034385;28;20889;-69
2023/09/12 02:08:23;;;;;;;5.40;4.90;;;;;;;;;;5034182;28;20414;-69
2023/09/12 02:10:49;;;;;;;5.53;5.13;;;;;;;;;;5033760;28;20446;-69
2023/09/12 02:13:15;;;;;;;8.83;5.33;;;;;;;;;;5034112;28;20188;-69
2023/09/12 02:15:41;;;;;;;6.83;6.07;;;;;;;;;;5033653;28;20478;-69
2023/09/12 02:18:07;;;;;;;7.30;5.80;;;;;;;;;;5033726;28;20462;-69
2023/09/12 02:20:33;;;;;;;5.80;5.40;;;;;;;;;;5033652;28;20399;-69
2023/09/12 02:22:58;;;;;;;6.20;5.77;;;;;;;;;;5033865;28;20900;-69
2023/09/12 02:25:24;;;;;;;10.37;6.93;;;;;;;;;;5032974;28;20400;-69
2023/09/12 02:27:50;;;;;;;9.30;6.27;;;;;;;;;;5033629;28;20462;-69
2023/09/12 02:30:16;;;;;;;8.83;6.00;;;;;;;;;;5033442;28;20461;-69
2023/09/12 02:32:43;;;;;;;7.50;6.13;;;;;;;;;;5033811;28;20422;-68
2023/09/12 02:35:09;;;;;;;6.07;5.47;;;;;;;;;;5033607;28;20474;-69
2023/09/12 02:37:35;;;;;;;7.00;6.33;;;;;;;;;;5033361;28;20523;-69
2023/09/12 02:40:01;;;;;;;14.60;6.87;;;;;;;;;;5033251;28;20419;-69
2023/09/12 02:42:27;;;;;;;6.83;6.33;;;;;;;;;;5033875;28;20407;-69
2023/09/12 02:44:53;;;;;;;6.33;6.03;;;;;;;;;;5033576;28;20796;-69
2023/09/12 02:47:19;;;;;;;7.13;5.57;;;;;;;;;;5033522;28;20930;-69
2023/09/12 02:49:45;;;;;;;6.60;6.00;;;;;;;;;;5033763;28;20915;-68
2023/09/12 02:52:10;;;;;;;6.40;5.90;;;;;;;;;;5034165;28;20522;-69
2023/09/12 02:54:36;;;;;;;7.40;6.60;;;;;;;;;;5033360;28;20521;-69
2023/09/12 02:57:04;;;;;;;6.40;5.80;;;;;;;;;;5033383;28;20258;-69
2023/09/12 02:59:30;;;;;;;7.40;6.03;;;;;;;;;;5033114;28;20418;-69
2023/09/12 03:01:56;;;;;;;7.43;6.97;;;;;;;;;;5033347;28;20427;-70
2023/09/12 03:04:22;;;;;;;10.73;6.73;;;;;;;;;;5033418;28;20407;-69
2023/09/12 03:06:48;;;;;;;6.43;6.00;;;;;;;;;;5033048;28;20420;-70
2023/09/12 03:09:16;;;;;;;8.77;6.53;;;;;;;;;;5031737;28;20470;-70
2023/09/12 03:11:42;;;;;;;5.30;5.10;;;;;;;;;;5033242;28;20426;-69
2023/09/12 03:14:08;;;;;;;5.43;5.00;;;;;;;;;;5033236;28;20470;-69
2023/09/12 03:16:36;;;;;;;7.63;7.00;;;;;;;;;;5033249;28;20522;-70
2023/09/12 03:19:03;;;;;;;6.80;6.17;;;;;;;;;;5031617;28;20295;-71
2023/09/12 03:21:29;;;;;;;16.07;8.30;;;;;;;;;;5032876;28;20436;-70
2023/09/12 03:23:55;;;;;;;6.60;6.10;;;;;;;;;;5033085;28;20419;-70
2023/09/12 03:26:21;;;;;;;7.73;5.40;;;;;;;;;;5032943;28;20507;-69
2023/09/12 03:28:50;;;;;;;14.77;7.57;;;;;;;;;;5032867;28;20415;-69
2023/09/12 03:31:16;;;;;;;8.33;7.40;;;;;;;;;;5032787;28;20943;-69
2023/09/12 03:33:42;;;;;;;10.20;7.40;;;;;;;;;;5032713;28;20415;-69
2023/09/12 03:36:09;;;;;;;8.63;7.50;;;;;;;;;;5048565;28;20294;-69
2023/09/12 03:38:35;;;;;;;6.93;6.43;;;;;;;;;;5036910;28;20472;-69
2023/09/12 03:41:01;;;;;;;9.20;7.77;;;;;;;;;;5036647;28;20438;-70
2023/09/12 03:43:28;;;;;;;10.07;6.83;;;;;;;;;;5036837;28;20518;-71
2023/09/12 03:45:54;;;;;;;8.97;7.93;;;;;;;;;;5037598;28;20423;-70
2023/09/12 03:48:20;;;;;;;7.97;7.13;;;;;;;;;;5035316;28;20458;-69
2023/09/12 03:50:46;;;;;;;8.97;7.70;;;;;;;;;;5036678;28;20967;-69
2023/09/12 03:53:12;;;;;;;7.87;7.17;;;;;;;;;;5036578;28;20510;-70
2023/09/12 03:55:38;;;;;;;8.20;7.43;;;;;;;;;;5036080;28;20490;-70
2023/09/12 03:58:04;;;;;;;8.37;7.63;;;;;;;;;;5036502;28;20418;-69
2023/09/12 04:00:30;;;;;;;8.80;8.10;;;;;;;;;;5036538;28;20419;-70
2023/09/12 04:02:56;;;;;;;7.27;6.67;;;;;;;;;;5036368;28;20419;-69
2023/09/12 04:05:22;;;;;;;12.77;6.47;;;;;;;;;;5036532;28;20426;-69
2023/09/12 04:07:48;;;;;;;8.40;7.60;;;;;;;;;;5035996;28;20423;-70
2023/09/12 04:10:14;;;;;;;12.00;7.40;;;;;;;;;;5036008;28;20425;-70
2023/09/12 04:12:40;;;;;;;7.60;7.13;;;;;;;;;;5035973;28;20442;-69
2023/09/12 04:15:06;;;;;;;7.00;6.40;;;;;;;;;;5036287;28;20457;-70
2023/09/12 04:17:32;;;;;;;8.80;7.43;;;;;;;;;;5035951;28;20419;-69
2023/09/12 04:19:58;;;;;;;25.93;7.27;;;;;;;;;;5035856;28;20407;-69
2023/09/12 04:22:24;;;;;;;9.03;6.90;;;;;;;;;;5035890;28;20423;-70
2023/09/12 04:24:50;;;;;;;7.83;7.30;;;;;;;;;;5035807;28;20427;-69
2023/09/12 04:27:16;;;;;;;9.50;6.70;;;;;;;;;;5035562;28;20419;-70
2023/09/12 04:29:42;;;;;;;12.37;7.00;;;;;;;;;;5035822;28;20415;-69
2023/09/12 04:32:08;;;;;;;10.10;8.07;;;;;;;;;;5036141;28;20901;-69
2023/09/12 04:34:35;;;;;;;8.67;7.77;;;;;;;;;;5035550;28;21021;-70
2023/09/12 04:37:02;;;;;;;7.67;6.97;;;;;;;;;;5035879;28;20423;-71
2023/09/12 04:39:28;;;;;;;8.93;8.03;;;;;;;;;;5035450;28;20779;-69
2023/09/12 04:41:54;;;;;;;17.23;8.50;;;;;;;;;;5035714;28;20424;-70
2023/09/12 04:44:20;;;;;;;12.80;8.37;;;;;;;;;;5034208;28;20411;-69
2023/09/12 04:46:46;;;;;;;10.53;7.90;;;;;;;;;;5035328;28;20423;-70
2023/09/12 04:49:12;;;;;;;8.47;7.27;;;;;;;;;;5034740;28;20419;-69
2023/09/12 04:51:38;;;;;;;8.03;7.43;;;;;;;;;;5034026;28;20860;-70
2023/09/12 04:54:04;;;;;;;8.00;6.63;;;;;;;;;;5035208;28;20448;-70
2023/09/12 04:56:30;;;;;;;13.10;8.00;;;;;;;;;;5035008;28;20577;-70
2023/09/12 04:58:56;;;;;;;8.30;7.63;;;;;;;;;;5035221;28;20450;-70
2023/09/12 05:01:22;;;;;;;8.40;7.70;;;;;;;;;;5035709;28;20427;-70
2023/09/12 05:03:48;;;;;;;9.13;8.20;;;;;;;;;;5035057;28;20420;-70
2023/09/12 05:06:14;;;;;;;8.60;7.57;;;;;;;;;;5035010;28;20836;-69
2023/09/12 05:08:40;;;;;;;11.00;7.53;;;;;;;;;;5034760;28;20415;-70
2023/09/12 05:11:06;;;;;;;11.07;9.90;;;;;;;;;;5035652;28;20434;-70
2023/09/12 05:13:33;;;;;;;8.97;8.07;;;;;;;;;;5034901;28;20798;-70
2023/09/12 05:15:59;;;;;;;11.40;8.47;;;;;;;;;;5034982;28;20569;-72
2023/09/12 05:18:25;;;;;;;11.50;9.80;;;;;;;;;;5034842;28;20470;-71
2023/09/12 05:20:51;;;;;;;15.67;10.93;;;;;;;;;;5034939;28;20432;-71
2023/09/12 05:23:17;;;;;;;25.97;11.50;;;;;;;;;;5034678;28;20415;-70
2023/09/12 05:25:43;;;;;;;17.20;11.20;;;;;;;;;;5034660;28;20950;-70
2023/09/12 05:28:09;;;;;;;16.30;9.70;;;;;;;;;;5034648;28;20415;-71
2023/09/12 05:30:35;;;;;;;14.90;11.63;;;;;;;;;;5034415;28;20848;-71
2023/09/12 05:33:02;;;;;;;31.37;11.40;;;;;;;;;;5034817;28;20419;-71
2023/09/12 05:35:28;;;;;;;21.27;10.83;;;;;;;;;;5035286;28;20862;-71
2023/09/12 05:37:54;;;;;;;18.97;11.73;;;;;;;;;;5034703;28;20454;-70
2023/09/12 05:40:20;;;;;;;16.17;12.07;;;;;;;;;;5034326;28;20917;-70
2023/09/12 05:42:46;;;;;;;9.60;8.20;;;;;;;;;;5034400;28;20419;-71
2023/09/12 05:45:12;;;;;;;15.90;10.90;;;;;;;;;;5034836;28;20450;-70
2023/09/12 05:47:38;;;;;;;17.70;10.47;;;;;;;;;;5034577;28;20260;-70
2023/09/12 05:50:06;;;;;;;24.17;11.57;;;;;;;;;;5034726;28;20515;-70
2023/09/12 05:52:32;;;;;;;20.33;11.37;;;;;;;;;;5034081;28;20168;-69
2023/09/12 05:54:58;;;;;;;19.13;11.00;;;;;;;;;;5034075;28;20848;-70
2023/09/12 05:57:24;;;;;;;15.60;11.40;;;;;;;;;;5034492;28;20447;-70
2023/09/12 05:59:50;;;;;;;19.90;10.80;;;;;;;;;;5033290;28;20407;-71
2023/09/12 06:05:19;;;;;;;24.40;9.77;;;;;;;;;;5033946;28;20406;-70
2023/09/12 06:07:46;;;;;;;14.73;9.80;;;;;;;;;;5034065;28;20411;-70
2023/09/12 06:10:12;;;;;;;24.03;9.97;;;;;;;;;;5034205;28;20442;-70
2023/09/12 06:12:38;;;;;;;11.10;9.30;;;;;;;;;;5033842;28;20407;-71
2023/09/12 06:15:04;;;;;;;12.63;7.33;;;;;;;;;;5033987;28;20466;-69
2023/09/12 06:17:31;;;;;;;11.50;8.27;;;;;;;;;;5034206;28;20419;-70
2023/09/12 06:19:57;;;;;;;20.40;8.53;;;;;;;;;;5033915;28;20442;-69
2023/09/12 06:22:23;;;;;;;20.37;9.97;;;;;;;;;;5033552;28;20438;-69
2023/09/12 06:24:50;;;;;;;13.07;9.00;;;;;;;;;;5034769;28;20530;-70
2023/09/12 06:27:18;;;;;;;20.60;10.13;;;;;;;;;;5034603;28;20498;-69
2023/09/12 06:29:48;;;;;;;19.33;10.73;;;;;;;;;;5033501;28;20775;-71
2023/09/12 06:32:15;;;;;;;15.83;10.10;;;;;;;;;;5033449;28;20904;-71
2023/09/12 06:34:41;;;;;;;15.30;10.67;;;;;;;;;;5033303;28;20473;-70
2023/09/12 06:37:07;;;;;;;13.07;10.83;;;;;;;;;;5033679;28;20414;-70
2023/09/12 06:39:33;;;;;;;23.40;12.40;;;;;;;;;;5033703;28;20430;-70
2023/09/12 06:41:59;;;;;;;13.63;11.10;;;;;;;;;;5033309;28;20423;-69
2023/09/12 06:44:25;;;;;;;33.07;12.20;;;;;;;;;;5033534;28;20455;-69
2023/09/12 06:46:51;;;;;;;12.10;9.77;;;;;;;;;;5033579;28;20185;-70
2023/09/12 06:49:17;;;;;;;24.00;10.77;;;;;;;;;;5033235;28;20423;-70
2023/09/12 06:51:43;;;;;;;13.90;9.47;;;;;;;;;;5033441;28;20442;-72
2023/09/12 06:54:09;;;;;;;14.63;10.10;;;;;;;;;;5033195;28;20261;-69
2023/09/12 06:56:37;;;;;;;19.80;11.00;;;;;;;;;;5032836;28;20522;-71
2023/09/12 06:59:04;;;;;;;14.20;9.13;;;;;;;;;;5032926;28;20419;-69
2023/09/12 07:01:30;;;;;;;10.60;9.50;;;;;;;;;;5033337;28;20542;-70
2023/09/12 07:03:56;;;;;;;17.67;8.67;;;;;;;;;;5033047;28;20946;-70
2023/09/12 07:06:22;;;;;;;12.67;8.90;;;;;;;;;;5033324;28;20545;-70
2023/09/12 07:08:48;;;;;;;9.60;8.67;;;;;;;;;;5032945;28;20411;-69
2023/09/12 07:11:14;;;;;;;9.40;8.47;;;;;;;;;;5034039;28;20423;-69
2023/09/12 07:13:40;;;;;;;10.30;8.77;;;;;;;;;;5037761;28;20502;-69
2023/09/12 07:16:06;;;;;;;10.13;8.47;;;;;;;;;;5035754;28;20881;-71
2023/09/12 07:18:32;;;;;;;8.10;7.30;;;;;;;;;;5037294;28;20411;-70
2023/09/12 07:21:02;;;;;;;14.90;9.87;;;;;;;;;;5037022;28;20903;-69
2023/09/12 07:23:32;;;;;;;14.37;10.60;;;;;;;;;;5036929;28;20470;-70
2023/09/12 07:25:58;;;;;;;13.63;9.50;;;;;;;;;;5037309;28;20415;-69
2023/09/12 07:28:27;;;;;;;17.10;11.07;;;;;;;;;;5036905;28;20415;-70
2023/09/12 07:30:54;;;;;;;22.73;9.23;;;;;;;;;;5036937;28;20427;-70
2023/09/12 07:33:21;;;;;;;11.83;10.43;;;;;;;;;;5037042;28;20415;-69
2023/09/12 07:35:46;;;;;;;13.73;8.77;;;;;;;;;;5035476;28;20839;-69
2023/09/12 07:38:15;;;;;;;13.87;9.93;;;;;;;;;;5036961;28;20422;-69
2023/09/12 07:40:41;;;;;;;14.90;10.30;;;;;;;;;;5037260;28;20759;-69
2023/09/12 07:43:07;;;;;;;14.40;10.03;;;;;;;;;;5036991;28;20418;-69
2023/09/12 07:45:36;;;;;;;16.33;9.70;;;;;;;;;;5036522;28;20422;-70
2023/09/12 07:48:03;;;;;;;9.93;8.70;;;;;;;;;;5036808;28;20422;-69
2023/09/12 07:50:29;;;;;;;10.23;9.17;;;;;;;;;;5036605;28;20494;-69
2023/09/12 07:52:55;;;;;;;8.43;7.83;;;;;;;;;;5036429;28;20407;-68
2023/09/12 07:55:21;;;;;;;10.27;8.07;;;;;;;;;;5036577;28;20925;-69
2023/09/12 07:57:47;;;;;;;7.87;7.30;;;;;;;;;;5036494;28;20651;-69
2023/09/12 08:00:13;;;;;;;9.10;8.20;;;;;;;;;;5036431;28;20796;-69
2023/09/12 08:02:41;;;;;;;9.80;8.90;;;;;;;;;;5035961;28;20422;-69
2023/09/12 08:05:08;;;;;;;9.00;7.73;;;;;;;;;;5036088;28;20867;-69
2023/09/12 08:07:34;;;;;;;11.97;7.87;;;;;;;;;;5035767;28;20453;-69
2023/09/12 08:10:00;;;;;;;9.47;8.47;;;;;;;;;;5036602;28;20473;-69
2023/09/12 08:12:27;;;;;;;7.57;6.87;;;;;;;;;;5036940;28;20419;-69
2023/09/12 08:14:54;;;;;;;8.00;7.40;;;;;;;;;;5036225;28;20466;-69
2023/09/12 08:17:20;;;;;;;8.30;7.40;;;;;;;;;;5035771;28;20473;-70
2023/09/12 08:19:46;;;;;;;8.00;7.30;;;;;;;;;;5036176;28;20423;-69
2023/09/12 08:22:13;;;;;;;15.47;8.90;;;;;;;;;;5036012;28;20427;-69
2023/09/12 08:24:39;;;;;;;19.27;9.00;;;;;;;;;;5035068;28;20506;-69
2023/09/12 08:27:05;;;;;;;8.67;7.93;;;;;;;;;;5035818;28;20421;-69
2023/09/12 08:29:32;;;;;;;8.60;7.80;;;;;;;;;;5035767;28;20422;-70
2023/09/12 08:31:58;;;;;;;9.33;7.60;;;;;;;;;;5036066;28;20423;-69
2023/09/12 08:34:24;;;;;;;13.20;8.10;;;;;;;;;;5035545;28;20913;-69
2023/09/12 08:36:51;;;;;;;18.80;9.70;;;;;;;;;;5035655;28;20514;-69
2023/09/12 08:39:18;;;;;;;11.80;7.77;;;;;;;;;;5035878;28;20416;-69
2023/09/12 08:41:46;;;;;;;13.00;9.10;;;;;;;;;;5050918;28;20942;-69
2023/09/12 08:44:12;;;;;;;17.80;9.10;;;;;;;;;;5035731;28;20419;-69
2023/09/12 08:46:39;;;;;;;12.13;8.10;;;;;;;;;;5035478;28;20427;-69
2023/09/12 08:49:06;;;;;;;9.70;8.70;;;;;;;;;;5035684;28;20488;-69
2023/09/12 08:51:33;;;;;;;15.00;8.90;;;;;;;;;;5035610;28;20441;-69
2023/09/12 08:53:59;;;;;;;21.60;7.70;;;;;;;;;;5035696;28;20419;-69
2023/09/12 08:56:25;;;;;;;17.60;8.90;;;;;;;;;;5035180;28;20494;-69
2023/09/12 08:58:51;;;;;;;17.80;8.47;;;;;;;;;;5035500;28;20415;-69
2023/09/12 09:01:18;;;;;;;20.70;9.33;;;;;;;;;;5035363;28;20761;-69
2023/09/12 09:03:45;;;;;;;15.13;7.50;;;;;;;;;;5035160;28;20841;-70
2023/09/12 09:06:11;;;;;;;12.37;6.93;;;;;;;;;;5035142;28;20419;-69
2023/09/12 09:08:38;;;;;;;6.07;5.57;;;;;;;;;;5035439;28;20423;-69
2023/09/12 09:11:06;;;;;;;20.43;8.40;;;;;;;;;;5035260;28;20763;-69
2023/09/12 09:13:32;;;;;;;10.87;7.27;;;;;;;;;;5034967;28;20909;-68
2023/09/12 09:16:14;;;;;;;16.33;8.03;;;;;;;;;;5034979;28;20471;-69
2023/09/12 09:18:50;;;;;;;10.13;7.47;;;;;;;;;;5035180;28;20420;-69
2023/09/12 09:21:20;;;;;;;15.90;7.27;;;;;;;;;;5034771;28;20430;-69
2023/09/12 09:23:47;;;;;;;14.63;7.33;;;;;;;;;;5034809;28;20423;-69
2023/09/12 09:26:13;;;;;;;16.07;7.50;;;;;;;;;;5034738;28;20399;-69
2023/09/12 09:28:39;;;;;;;17.50;6.97;;;;;;;;;;5035063;28;20485;-69
2023/09/12 09:31:10;;;;;;;29.67;8.10;;;;;;;;;;5034861;28;20809;-69
2023/09/12 09:33:36;;;;;;;7.90;5.70;;;;;;;;;;5035120;28;20427;-69
2023/09/12 09:36:06;;;;;;;15.70;7.50;;;;;;;;;;5034532;28;20486;-69
2023/09/12 09:38:32;;;;;;;10.50;5.70;;;;;;;;;;5034542;28;20415;-70
2023/09/12 09:40:58;;;;;;;12.13;6.20;;;;;;;;;;5034426;28;20424;-69
2023/09/12 09:43:24;;;;;;;7.60;5.07;;;;;;;;;;5035015;28;20425;-69
2023/09/12 09:45:50;;;;;;;5.03;4.63;;;;;;;;;;5034309;28;20918;-69
2023/09/12 09:48:20;;;;;;;17.60;6.63;;;;;;;;;;5034276;28;20914;-69
2023/09/12 09:50:46;;;;;;;10.50;4.63;;;;;;;;;;5034198;28;20430;-69
2023/09/12 09:53:12;;;;;;;5.17;4.67;;;;;;;;;;5033421;28;20459;-68
2023/09/12 09:55:38;;;;;;;5.40;4.90;;;;;;;;;;5034045;28;20487;-69
2023/09/12 09:58:07;;;;;;;4.67;4.37;;;;;;;;;;5034139;28;20424;-69
2023/09/12 10:00:37;;;;;;;6.60;5.63;;;;;;;;;;5034578;28;20187;-68
2023/09/12 10:03:06;;;;;;;6.77;5.33;;;;;;;;;;5034392;28;20506;-69
2023/09/12 10:05:33;;;;;;;10.90;5.93;;;;;;;;;;5034197;28;20514;-69
2023/09/12 10:08:00;;;;;;;23.83;5.20;;;;;;;;;;5033931;28;20928;-70
2023/09/12 10:10:28;;;;;;;5.93;5.50;;;;;;;;;;5034222;28;20807;-69
2023/09/12 10:12:56;;;;;;;7.10;5.57;;;;;;;;;;5033922;28;20971;-69
2023/09/12 10:15:23;;;;;;;5.43;4.93;;;;;;;;;;5033707;28;20578;-70
2023/09/12 10:18:00;;;;;;;7.57;4.83;;;;;;;;;;5034081;28;20411;-70
2023/09/12 10:20:29;;;;;;;5.40;4.57;;;;;;;;;;5034062;28;20395;-69
2023/09/12 10:23:11;;;;;;;9.50;4.50;;;;;;;;;;5033938;28;20971;-70
2023/09/12 10:25:37;;;;;;;7.73;4.63;;;;;;;;;;5033909;28;20400;-69
2023/09/12 10:28:06;;;;;;;4.57;4.27;;;;;;;;;;5033627;28;20415;-69
2023/09/12 10:30:34;;;;;;;4.50;4.30;;;;;;;;;;5033769;28;20469;-70
2023/09/12 10:33:03;;;;;;;35.07;4.90;;;;;;;;;;5033801;28;20423;-68
2023/09/12 10:35:30;;;;;;;7.03;4.10;;;;;;;;;;5032875;28;20549;-69
2023/09/12 10:37:59;;;;;;;6.60;4.03;;;;;;;;;;5033532;28;20474;-68
2023/09/12 10:40:26;;;;;;;16.67;4.23;;;;;;;;;;5033675;28;20403;-68
2023/09/12 10:42:54;;;;;;;4.50;4.10;;;;;;;;;;5033441;28;20426;-69
2023/09/12 10:45:20;;;;;;;5.20;4.80;;;;;;;;;;5033243;28;20443;-69
2023/09/12 10:47:46;;;;;;;3.70;3.60;;;;;;;;;;5032903;28;20443;-69
2023/09/12 10:50:13;;;;;;;4.23;4.07;;;;;;;;;;5033201;28;20419;-69
2023/09/12 10:52:40;;;;;;;4.40;4.07;;;;;;;;;;5033460;28;20754;-69
2023/09/12 10:55:07;;;;;;;4.00;3.70;;;;;;;;;;5033187;28;20494;-69
2023/09/12 10:57:34;;;;;;;10.60;3.80;;;;;;;;;;5033240;28;20419;-68
2023/09/12 11:00:00;;;;;;;4.97;3.60;;;;;;;;;;5033366;28;20784;-69
2023/09/12 11:02:33;;;;;;;5.70;3.60;;;;;;;;;;5033132;28;20903;-68
2023/09/12 11:05:00;;;;;;;4.20;4.10;;;;;;;;;;5033303;28;20187;-68
2023/09/12 11:07:34;;;;;;;4.47;4.07;;;;;;;;;;5033075;28;20450;-69
2023/09/12 11:10:16;;;;;;;4.60;4.40;;;;;;;;;;5033189;28;20450;-69
2023/09/12 11:12:42;;;;;;;9.13;5.00;;;;;;;;;;5033310;28;20506;-69
2023/09/12 11:15:10;;;;;;;4.97;4.57;;;;;;;;;;5033204;28;20467;-68
2023/09/12 11:17:39;;;;;;;5.13;4.70;;;;;;;;;;5032995;28;20466;-68
2023/09/12 11:20:11;;;;;;;10.03;4.20;;;;;;;;;;5033164;28;20413;-69
2023/09/12 11:22:41;;;;;;;4.80;4.10;;;;;;;;;;5033208;28;20400;-69
2023/09/12 11:25:18;;;;;;;7.07;5.30;;;;;;;;;;5033706;28;20419;-69
2023/09/12 11:27:45;;;;;;;5.33;4.20;;;;;;;;;;5032997;28;20506;-68
2023/09/12 11:30:11;;;;;;;4.33;4.03;;;;;;;;;;5033127;28;20496;-69
2023/09/12 11:32:37;;;;;;;4.33;3.90;;;;;;;;;;5032383;28;20427;-69
2023/09/12 11:35:07;;;;;;;3.73;3.53;;;;;;;;;;5033081;28;20455;-68
2023/09/12 11:37:36;;;;;;;5.57;5.17;;;;;;;;;;5033056;28;20427;-69
2023/09/12 11:40:02;;;;;;;4.90;4.60;;;;;;;;;;5032980;28;20446;-69
2023/09/12 11:42:28;;;;;;;6.13;4.37;;;;;;;;;;5033138;28;20542;-69
2023/09/12 11:44:55;;;;;;;4.90;4.50;;;;;;;;;;5032977;28;20411;-69
2023/09/12 11:47:21;;;;;;;4.43;4.20;;;;;;;;;;5033287;28;20876;-68
2023/09/12 11:49:47;;;;;;;4.60;4.50;;;;;;;;;;5032962;28;20938;-68
2023/09/12 11:52:16;;;;;;;5.90;3.90;;;;;;;;;;5032679;28;20420;-68
2023/09/12 11:54:42;;;;;;;6.80;5.00;;;;;;;;;;5032393;28;20502;-69
2023/09/12 11:57:09;;;;;;;5.00;4.80;;;;;;;;;;5033758;28;20438;-68
2023/09/12 11:59:40;;;;;;;4.93;4.33;;;;;;;;;;5036679;28;20410;-69
2023/09/12 12:02:09;;;;;;;4.87;4.30;;;;;;;;;;5036413;28;20439;-69
2023/09/12 12:04:36;;;;;;;4.43;4.10;;;;;;;;;;5034668;28;20505;-69
2023/09/12 12:07:04;;;;;;;5.50;5.10;;;;;;;;;;5036325;28;20851;-71
2023/09/12 12:09:30;;;;;;;7.40;4.70;;;;;;;;;;5036363;28;20430;-72
2023/09/12 12:12:00;;;;;;;5.13;4.83;;;;;;;;;;5036003;28;20457;-71
2023/09/12 12:14:26;;;;;;;6.77;4.90;;;;;;;;;;5036021;28;20967;-71
2023/09/12 12:16:52;;;;;;;8.80;4.13;;;;;;;;;;5035917;28;20478;-72
2023/09/12 12:19:19;;;;;;;5.23;4.80;;;;;;;;;;5035715;28;20424;-69
2023/09/12 12:21:45;;;;;;;11.13;7.10;;;;;;;;;;5035888;28;20873;-71
2023/09/12 12:24:12;;;;;;;4.00;3.90;;;;;;;;;;5051560;28;20432;-70
2023/09/12 12:26:41;;;;;;;11.67;5.07;;;;;;;;;;5036139;28;20418;-69
2023/09/12 12:29:07;;;;;;;20.37;4.40;;;;;;;;;;5035887;28;20434;-69
2023/09/12 12:31:33;;;;;;;29.63;5.50;;;;;;;;;;5034361;28;20431;-70
2023/09/12 12:33:59;;;;;;;5.60;3.53;;;;;;;;;;5035591;28;20430;-68
2023/09/12 12:36:26;;;;;;;6.33;4.10;;;;;;;;;;5035329;28;20986;-69
2023/09/12 12:38:53;;;;;;;3.97;3.67;;;;;;;;;;5035651;28;20415;-69
2023/09/12 12:41:23;;;;;;;4.37;4.20;;;;;;;;;;5035756;28;20477;-69
2023/09/12 12:43:54;;;;;;;7.17;4.10;;;;;;;;;;5035786;28;20884;-69
2023/09/12 12:46:23;;;;;;;4.70;3.80;;;;;;;;;;5035851;28;20491;-70
2023/09/12 12:48:49;;;;;;;4.47;4.00;;;;;;;;;;5034131;28;20995;-69
2023/09/12 12:51:16;;;;;;;5.47;5.00;;;;;;;;;;5035338;28;20835;-69
2023/09/12 12:53:43;;;;;;;3.90;3.80;;;;;;;;;;5035412;28;20427;-69
2023/09/12 12:56:12;;;;;;;4.63;4.43;;;;;;;;;;5034994;28;20487;-68
2023/09/12 12:58:38;;;;;;;4.17;3.97;;;;;;;;;;5035521;28;20481;-69
2023/09/12 13:01:04;;;;;;;3.63;3.30;;;;;;;;;;5035002;28;20426;-69
2023/09/12 13:03:31;;;;;;;3.60;3.50;;;;;;;;;;5035108;28;20516;-69
2023/09/12 13:05:57;;;;;;;3.37;2.80;;;;;;;;;;5035004;28;20502;-69
2023/09/12 13:08:25;;;;;;;9.03;2.80;;;;;;;;;;5035059;28;20466;-67
2023/09/12 13:10:51;;;;;;;4.17;3.07;;;;;;;;;;5034543;28;20424;-71
2023/09/12 13:13:17;;;;;;;2.80;2.63;;;;;;;;;;5035223;28;20553;-69
2023/09/12 13:15:43;;;;;;;6.10;2.77;;;;;;;;;;5034864;28;20475;-70
2023/09/12 13:18:09;;;;;;;3.20;2.90;;;;;;;;;;5034809;28;20423;-69
2023/09/12 13:20:35;;;;;;;5.13;2.00;;;;;;;;;;5034891;28;20782;-69
2023/09/12 13:23:01;;;;;;;2.87;2.67;;;;;;;;;;5034804;28;20770;-69
2023/09/12 13:25:26;;;;;;;2.53;1.90;;;;;;;;;;5035017;28;20851;-70
2023/09/12 13:27:52;;;;;;;1.90;1.90;;;;;;;;;;5034752;28;20489;-70
2023/09/12 13:30:19;;;;;;;2.53;2.33;;;;;;;;;;5034864;28;20254;-69
2023/09/12 13:32:46;;;;;;;3.60;2.60;;;;;;;;;;5034840;28;20407;-69
2023/09/12 13:35:12;;;;;;;4.47;2.70;;;;;;;;;;5034310;28;20470;-69
2023/09/12 13:37:38;;;;;;;2.47;2.47;;;;;;;;;;5034404;28;20427;-68
2023/09/12 13:40:06;;;;;;;2.70;2.60;;;;;;;;;;5034909;28;20506;-70
2023/09/12 13:42:32;;;;;;;3.10;2.80;;;;;;;;;;5034285;28;20426;-69
2023/09/12 13:44:58;;;;;;;2.20;2.10;;;;;;;;;;5034579;28;20419;-69
2023/09/12 13:47:25;;;;;;;2.17;2.07;;;;;;;;;;5032996;28;20526;-69
2023/09/12 13:49:52;;;;;;;2.93;2.00;;;;;;;;;;5034503;28;20503;-69
2023/09/12 13:52:18;;;;;;;2.17;2.07;;;;;;;;;;5034476;28;20437;-70
2023/09/12 13:54:44;;;;;;;2.90;2.60;;;;;;;;;;5033545;28;20423;-68
2023/09/12 13:57:10;;;;;;;2.80;2.70;;;;;;;;;;5034334;28;20411;-69
2023/09/12 13:59:36;;;;;;;2.77;2.67;;;;;;;;;;5034000;28;20183;-69
2023/09/12 14:02:02;;;;;;;4.27;3.50;;;;;;;;;;5034215;28;20185;-69
2023/09/12 14:04:29;;;;;;;9.23;2.33;;;;;;;;;;5032694;28;20176;-69
2023/09/12 14:06:55;;;;;;;7.20;3.53;;;;;;;;;;5033763;28;20738;-69
2023/09/12 14:09:21;;;;;;;2.63;2.53;;;;;;;;;;5032252;28;20529;-69
2023/09/12 14:11:47;;;;;;;12.13;3.67;;;;;;;;;;5033680;28;20907;-71
2023/09/12 14:14:13;;;;;;;2.67;2.67;;;;;;;;;;5033499;28;20415;-70
2023/09/12 14:16:39;;;;;;;3.90;2.50;;;;;;;;;;5033575;28;20475;-71
2023/09/12 14:19:05;;;;;;;7.10;3.63;;;;;;;;;;5033659;28;20443;-71
2023/09/12 14:21:31;;;;;;;2.83;2.73;;;;;;;;;;5032601;28;20423;-71
2023/09/12 14:23:57;;;;;;;3.30;3.20;;;;;;;;;;5033813;28;20416;-70
2023/09/12 14:26:23;;;;;;;2.67;2.47;;;;;;;;;;5033848;28;20450;-70
2023/09/12 14:28:50;;;;;;;3.93;3.53;;;;;;;;;;5033847;28;20899;-70
2023/09/12 14:31:16;;;;;;;3.70;3.37;;;;;;;;;;5033633;28;20447;-72
2023/09/12 14:33:42;;;;;;;4.83;3.27;;;;;;;;;;5033724;28;20424;-69
2023/09/12 14:36:09;;;;;;;4.63;4.20;;;;;;;;;;5033390;28;20478;-69
2023/09/12 14:38:35;;;;;;;3.77;3.57;;;;;;;;;;5032746;28;20481;-70
2023/09/12 14:41:01;;;;;;;3.73;3.40;;;;;;;;;;5033830;28;20426;-68